sensor_id;sensor_type;location;lat;lon;timestamp;P1;durP1;ratioP1;P2;durP2;ratioP2
69197;SDS011;56311;50.298;8.514;2023-08-31T00:00:00;10.3;;;4.0;;
69197;SDS011;56311;50.298;8.514;2023-08-31T00:02:00;8.0;;;4.1;;
69197;SDS011;56311;50.298;8.514;2023-08-31T00:04:00;8.1;;;3.8;;
69197;SDS011;56311;50.298;8.514;2023-08-31T00:06:01;9.1;;;3.8;;
69197;SDS011;56311;50.298;8.514;2023-08-31T00:08:00;10.5;;;4.2;;
69197;SDS011;56311;50.298;8.514;2023-08-31T00:10:00;11.0;;;4.4;;
69197;SDS011;56311;50.298;8.514;2023-08-31T00:12:00;10.1;;;4.0;;
69197;SDS011;56311;50.298;8.514;2023-08-31T00:14:00;9.0;;;4.3;;
69197;SDS011;56311;50.298;8.514;2023-08-31T00:16:00;10.7;;;4.9;;
69197;SDS011;56311;50.298;8.514;2023-08-31T00:18:00;10.5;;;4.6;;
69197;SDS011;56311;50.298;8.514;2023-08-31T00:20:00;9.5;;;4.7;;
69197;SDS011;56311;50.298;8.514;2023-08-31T00:22:00;10.8;;;4.9;;
69197;SDS011;56311;50.298;8.514;2023-08-31T00:24:00;10.2;;;4.4;;
69197;SDS011;56311;50.298;8.514;2023-08-31T00:26:00;10.2;;;4.3;;
69197;SDS011;56311;50.298;8.514;2023-08-31T00:28:00;11.6;;;4.3;;
69197;SDS011;56311;50.298;8.514;2023-08-31T00:30:00;10.5;;;4.3;;
69197;SDS011;56311;50.298;8.514;2023-08-31T00:32:00;11.7;;;5.0;;
69197;SDS011;56311;50.298;8.514;2023-08-31T00:34:00;9.0;;;4.6;;
69197;SDS011;56311;50.298;8.514;2023-08-31T00:36:00;10.3;;;4.4;;
69197;SDS011;56311;50.298;8.514;2023-08-31T00:38:01;10.1;;;4.6;;
69197;SDS011;56311;50.298;8.514;2023-08-31T00:40:00;9.8;;;4.3;;
69197;SDS011;56311;50.298;8.514;2023-08-31T00:42:00;9.4;;;4.5;;
69197;SDS011;56311;50.298;8.514;2023-08-31T00:44:00;9.4;;;4.2;;
69197;SDS011;56311;50.298;8.514;2023-08-31T00:46:00;11.4;;;4.4;;
69197;SDS011;56311;50.298;8.514;2023-08-31T00:48:00;8.7;;;4.2;;
69197;SDS011;56311;50.298;8.514;2023-08-31T00:50:00;10.3;;;4.1;;
69197;SDS011;56311;50.298;8.514;2023-08-31T00:52:00;9.6;;;4.0;;
69197;SDS011;56311;50.298;8.514;2023-08-31T00:54:00;10.7;;;4.2;;
69197;SDS011;56311;50.298;8.514;2023-08-31T00:56:00;11.0;;;4.3;;
69197;SDS011;56311;50.298;8.514;2023-08-31T00:58:00;9.5;;;3.9;;
69197;SDS011;56311;50.298;8.514;2023-08-31T01:00:00;8.9;;;4.2;;
69197;SDS011;56311;50.298;8.514;2023-08-31T01:02:02;8.5;;;3.9;;
69197;SDS011;56311;50.298;8.514;2023-08-31T01:04:02;9.6;;;3.9;;
69197;SDS011;56311;50.298;8.514;2023-08-31T01:06:01;10.1;;;4.4;;
69197;SDS011;56311;50.298;8.514;2023-08-31T01:08:04;9.6;;;4.0;;
69197;SDS011;56311;50.298;8.514;2023-08-31T01:10:02;8.0;;;4.3;;
69197;SDS011;56311;50.298;8.514;2023-08-31T01:12:02;10.3;;;4.3;;
69197;SDS011;56311;50.298;8.514;2023-08-31T01:14:00;10.7;;;4.6;;
69197;SDS011;56311;50.298;8.514;2023-08-31T01:16:00;11.7;;;4.9;;
69197;SDS011;56311;50.298;8.514;2023-08-31T01:18:00;11.7;;;4.5;;
69197;SDS011;56311;50.298;8.514;2023-08-31T01:20:00;12.3;;;4.6;;
69197;SDS011;56311;50.298;8.514;2023-08-31T01:22:09;11.0;;;4.9;;
69197;SDS011;56311;50.298;8.514;2023-08-31T01:24:00;10.3;;;4.8;;
69197;SDS011;56311;50.298;8.514;2023-08-31T01:26:00;10.7;;;4.6;;
69197;SDS011;56311;50.298;8.514;2023-08-31T01:28:00;9.7;;;4.7;;
69197;SDS011;56311;50.298;8.514;2023-08-31T01:30:00;8.2;;;4.6;;
69197;SDS011;56311;50.298;8.514;2023-08-31T01:32:00;13.1;;;4.8;;
69197;SDS011;56311;50.298;8.514;2023-08-31T01:34:00;9.1;;;4.2;;
69197;SDS011;56311;50.298;8.514;2023-08-31T01:36:00;9.6;;;4.2;;
69197;SDS011;56311;50.298;8.514;2023-08-31T01:38:01;9.8;;;4.3;;
69197;SDS011;56311;50.298;8.514;2023-08-31T01:40:02;8.8;;;4.2;;
69197;SDS011;56311;50.298;8.514;2023-08-31T01:42:01;10.9;;;4.2;;
69197;SDS011;56311;50.298;8.514;2023-08-31T01:44:00;9.8;;;4.4;;
69197;SDS011;56311;50.298;8.514;2023-08-31T01:46:00;10.1;;;4.4;;
69197;SDS011;56311;50.298;8.514;2023-08-31T01:48:00;10.8;;;4.5;;
69197;SDS011;56311;50.298;8.514;2023-08-31T01:50:00;8.6;;;4.2;;
69197;SDS011;56311;50.298;8.514;2023-08-31T01:52:00;9.4;;;4.1;;
69197;SDS011;56311;50.298;8.514;2023-08-31T01:54:01;9.7;;;4.3;;
69197;SDS011;56311;50.298;8.514;2023-08-31T01:56:00;9.7;;;4.4;;
69197;SDS011;56311;50.298;8.514;2023-08-31T01:58:00;9.6;;;4.7;;
69197;SDS011;56311;50.298;8.514;2023-08-31T02:00:00;9.8;;;4.2;;
69197;SDS011;56311;50.298;8.514;2023-08-31T02:02:00;8.9;;;4.2;;
69197;SDS011;56311;50.298;8.514;2023-08-31T02:04:00;8.9;;;3.9;;
69197;SDS011;56311;50.298;8.514;2023-08-31T02:06:00;10.9;;;4.7;;
69197;SDS011;56311;50.298;8.514;2023-08-31T02:08:00;10.0;;;4.3;;
69197;SDS011;56311;50.298;8.514;2023-08-31T02:10:00;8.9;;;4.5;;
69197;SDS011;56311;50.298;8.514;2023-08-31T02:12:00;9.7;;;4.3;;
69197;SDS011;56311;50.298;8.514;2023-08-31T02:14:00;10.2;;;4.4;;
69197;SDS011;56311;50.298;8.514;2023-08-31T02:16:00;7.3;;;4.3;;
69197;SDS011;56311;50.298;8.514;2023-08-31T02:18:00;11.1;;;4.4;;
69197;SDS011;56311;50.298;8.514;2023-08-31T02:20:00;6.8;;;4.1;;
69197;SDS011;56311;50.298;8.514;2023-08-31T02:22:00;8.7;;;4.3;;
69197;SDS011;56311;50.298;8.514;2023-08-31T02:24:00;7.5;;;4.2;;
69197;SDS011;56311;50.298;8.514;2023-08-31T02:26:00;7.6;;;4.2;;
69197;SDS011;56311;50.298;8.514;2023-08-31T02:28:00;7.2;;;4.0;;
69197;SDS011;56311;50.298;8.514;2023-08-31T02:30:00;7.8;;;3.9;;
69197;SDS011;56311;50.298;8.514;2023-08-31T02:32:00;9.2;;;4.4;;
69197;SDS011;56311;50.298;8.514;2023-08-31T02:34:00;9.2;;;4.3;;
69197;SDS011;56311;50.298;8.514;2023-08-31T02:36:00;7.8;;;4.4;;
69197;SDS011;56311;50.298;8.514;2023-08-31T02:38:00;9.2;;;4.5;;
69197;SDS011;56311;50.298;8.514;2023-08-31T02:40:00;8.8;;;4.5;;
69197;SDS011;56311;50.298;8.514;2023-08-31T02:42:00;9.6;;;5.0;;
69197;SDS011;56311;50.298;8.514;2023-08-31T02:44:00;9.7;;;4.6;;
69197;SDS011;56311;50.298;8.514;2023-08-31T02:46:00;9.4;;;4.6;;
69197;SDS011;56311;50.298;8.514;2023-08-31T02:48:00;10.2;;;4.8;;
69197;SDS011;56311;50.298;8.514;2023-08-31T02:50:00;9.0;;;4.7;;
69197;SDS011;56311;50.298;8.514;2023-08-31T02:52:00;9.8;;;4.9;;
69197;SDS011;56311;50.298;8.514;2023-08-31T02:54:00;9.6;;;4.7;;
69197;SDS011;56311;50.298;8.514;2023-08-31T02:56:00;9.9;;;5.0;;
69197;SDS011;56311;50.298;8.514;2023-08-31T02:58:00;10.1;;;4.8;;
69197;SDS011;56311;50.298;8.514;2023-08-31T03:00:01;9.6;;;4.8;;
69197;SDS011;56311;50.298;8.514;2023-08-31T03:02:00;10.4;;;4.7;;
69197;SDS011;56311;50.298;8.514;2023-08-31T03:04:00;7.9;;;4.4;;
69197;SDS011;56311;50.298;8.514;2023-08-31T03:06:00;9.3;;;4.7;;
69197;SDS011;56311;50.298;8.514;2023-08-31T03:08:00;8.1;;;5.0;;
69197;SDS011;56311;50.298;8.514;2023-08-31T03:10:00;8.7;;;4.8;;
69197;SDS011;56311;50.298;8.514;2023-08-31T03:12:00;11.6;;;5.0;;
69197;SDS011;56311;50.298;8.514;2023-08-31T03:14:01;9.4;;;4.8;;
69197;SDS011;56311;50.298;8.514;2023-08-31T03:16:00;9.8;;;4.5;;
69197;SDS011;56311;50.298;8.514;2023-08-31T03:18:00;10.6;;;4.5;;
69197;SDS011;56311;50.298;8.514;2023-08-31T03:20:00;8.1;;;4.6;;
69197;SDS011;56311;50.298;8.514;2023-08-31T03:22:00;8.4;;;4.6;;
69197;SDS011;56311;50.298;8.514;2023-08-31T03:24:00;11.9;;;5.0;;
69197;SDS011;56311;50.298;8.514;2023-08-31T03:26:06;11.3;;;4.4;;
69197;SDS011;56311;50.298;8.514;2023-08-31T03:28:01;10.2;;;4.5;;
69197;SDS011;56311;50.298;8.514;2023-08-31T03:30:00;10.7;;;4.2;;
69197;SDS011;56311;50.298;8.514;2023-08-31T03:32:00;9.3;;;4.4;;
69197;SDS011;56311;50.298;8.514;2023-08-31T03:34:00;9.3;;;4.4;;
69197;SDS011;56311;50.298;8.514;2023-08-31T03:36:00;8.3;;;4.5;;
69197;SDS011;56311;50.298;8.514;2023-08-31T03:38:00;8.4;;;4.3;;
69197;SDS011;56311;50.298;8.514;2023-08-31T03:40:00;11.3;;;4.4;;
69197;SDS011;56311;50.298;8.514;2023-08-31T03:42:00;9.4;;;4.6;;
69197;SDS011;56311;50.298;8.514;2023-08-31T03:44:00;6.6;;;3.7;;
69197;SDS011;56311;50.298;8.514;2023-08-31T03:46:00;8.1;;;4.2;;
69197;SDS011;56311;50.298;8.514;2023-08-31T03:48:01;9.7;;;4.2;;
69197;SDS011;56311;50.298;8.514;2023-08-31T03:50:00;7.7;;;4.0;;
69197;SDS011;56311;50.298;8.514;2023-08-31T03:52:00;9.0;;;4.0;;
69197;SDS011;56311;50.298;8.514;2023-08-31T03:54:00;10.2;;;4.0;;
69197;SDS011;56311;50.298;8.514;2023-08-31T03:56:00;8.3;;;4.0;;
69197;SDS011;56311;50.298;8.514;2023-08-31T03:58:00;9.5;;;4.2;;
69197;SDS011;56311;50.298;8.514;2023-08-31T04:00:00;8.6;;;4.1;;
69197;SDS011;56311;50.298;8.514;2023-08-31T04:02:00;10.6;;;4.3;;
69197;SDS011;56311;50.298;8.514;2023-08-31T04:04:00;9.7;;;4.1;;
69197;SDS011;56311;50.298;8.514;2023-08-31T04:06:00;9.5;;;4.0;;
69197;SDS011;56311;50.298;8.514;2023-08-31T04:08:00;9.3;;;4.2;;
69197;SDS011;56311;50.298;8.514;2023-08-31T04:10:00;11.2;;;4.0;;
69197;SDS011;56311;50.298;8.514;2023-08-31T04:12:00;8.3;;;4.2;;
69197;SDS011;56311;50.298;8.514;2023-08-31T04:14:00;8.6;;;3.9;;
69197;SDS011;56311;50.298;8.514;2023-08-31T04:16:00;8.3;;;4.0;;
69197;SDS011;56311;50.298;8.514;2023-08-31T04:18:00;8.7;;;3.7;;
69197;SDS011;56311;50.298;8.514;2023-08-31T04:20:00;7.4;;;4.1;;
69197;SDS011;56311;50.298;8.514;2023-08-31T04:22:01;8.4;;;4.1;;
69197;SDS011;56311;50.298;8.514;2023-08-31T04:24:00;8.8;;;4.2;;
69197;SDS011;56311;50.298;8.514;2023-08-31T04:26:00;8.0;;;4.5;;
69197;SDS011;56311;50.298;8.514;2023-08-31T04:28:00;8.2;;;4.0;;
69197;SDS011;56311;50.298;8.514;2023-08-31T04:30:01;9.2;;;4.4;;
69197;SDS011;56311;50.298;8.514;2023-08-31T04:32:00;7.7;;;4.4;;
69197;SDS011;56311;50.298;8.514;2023-08-31T04:34:00;9.1;;;4.1;;
69197;SDS011;56311;50.298;8.514;2023-08-31T04:36:00;9.0;;;4.8;;
69197;SDS011;56311;50.298;8.514;2023-08-31T04:38:00;9.8;;;4.6;;
69197;SDS011;56311;50.298;8.514;2023-08-31T04:40:00;9.2;;;4.8;;
69197;SDS011;56311;50.298;8.514;2023-08-31T04:42:00;10.2;;;4.8;;
69197;SDS011;56311;50.298;8.514;2023-08-31T04:44:00;8.8;;;4.6;;
69197;SDS011;56311;50.298;8.514;2023-08-31T04:46:00;8.2;;;4.6;;
69197;SDS011;56311;50.298;8.514;2023-08-31T04:48:00;9.0;;;4.8;;
69197;SDS011;56311;50.298;8.514;2023-08-31T04:50:00;11.8;;;5.2;;
69197;SDS011;56311;50.298;8.514;2023-08-31T04:52:00;9.3;;;5.0;;
69197;SDS011;56311;50.298;8.514;2023-08-31T04:54:00;10.6;;;5.0;;
69197;SDS011;56311;50.298;8.514;2023-08-31T04:56:00;10.4;;;5.1;;
69197;SDS011;56311;50.298;8.514;2023-08-31T04:58:00;9.6;;;5.0;;
69197;SDS011;56311;50.298;8.514;2023-08-31T05:00:00;8.9;;;5.2;;
69197;SDS011;56311;50.298;8.514;2023-08-31T05:02:00;10.0;;;4.8;;
69197;SDS011;56311;50.298;8.514;2023-08-31T05:04:00;10.2;;;5.3;;
69197;SDS011;56311;50.298;8.514;2023-08-31T05:06:00;11.5;;;5.4;;
69197;SDS011;56311;50.298;8.514;2023-08-31T05:08:00;10.0;;;4.9;;
69197;SDS011;56311;50.298;8.514;2023-08-31T05:10:00;10.0;;;4.8;;
69197;SDS011;56311;50.298;8.514;2023-08-31T05:12:00;10.3;;;4.9;;
69197;SDS011;56311;50.298;8.514;2023-08-31T05:14:00;9.9;;;4.6;;
69197;SDS011;56311;50.298;8.514;2023-08-31T05:16:01;9.3;;;4.7;;
69197;SDS011;56311;50.298;8.514;2023-08-31T05:18:00;8.6;;;4.2;;
69197;SDS011;56311;50.298;8.514;2023-08-31T05:20:00;9.1;;;4.5;;
69197;SDS011;56311;50.298;8.514;2023-08-31T05:22:00;10.8;;;4.3;;
69197;SDS011;56311;50.298;8.514;2023-08-31T05:24:00;10.7;;;4.3;;
69197;SDS011;56311;50.298;8.514;2023-08-31T05:26:00;9.9;;;4.1;;
69197;SDS011;56311;50.298;8.514;2023-08-31T05:28:00;8.3;;;3.7;;
69197;SDS011;56311;50.298;8.514;2023-08-31T05:30:00;7.1;;;3.9;;
69197;SDS011;56311;50.298;8.514;2023-08-31T05:32:00;8.9;;;3.9;;
69197;SDS011;56311;50.298;8.514;2023-08-31T05:34:00;8.7;;;4.1;;
69197;SDS011;56311;50.298;8.514;2023-08-31T05:36:00;7.9;;;4.0;;
69197;SDS011;56311;50.298;8.514;2023-08-31T05:38:00;9.7;;;3.9;;
69197;SDS011;56311;50.298;8.514;2023-08-31T05:40:00;9.5;;;3.6;;
69197;SDS011;56311;50.298;8.514;2023-08-31T05:42:00;9.9;;;3.7;;
69197;SDS011;56311;50.298;8.514;2023-08-31T05:44:00;10.9;;;3.7;;
69197;SDS011;56311;50.298;8.514;2023-08-31T05:46:00;8.9;;;3.8;;
69197;SDS011;56311;50.298;8.514;2023-08-31T05:48:00;8.6;;;3.5;;
69197;SDS011;56311;50.298;8.514;2023-08-31T05:50:00;8.6;;;3.4;;
69197;SDS011;56311;50.298;8.514;2023-08-31T05:52:00;10.7;;;4.3;;
69197;SDS011;56311;50.298;8.514;2023-08-31T05:54:00;8.7;;;3.2;;
69197;SDS011;56311;50.298;8.514;2023-08-31T05:56:00;7.9;;;3.5;;
69197;SDS011;56311;50.298;8.514;2023-08-31T05:58:00;8.5;;;3.1;;
69197;SDS011;56311;50.298;8.514;2023-08-31T06:00:00;7.5;;;3.3;;
69197;SDS011;56311;50.298;8.514;2023-08-31T06:02:00;8.0;;;3.4;;
69197;SDS011;56311;50.298;8.514;2023-08-31T06:04:00;7.0;;;2.9;;
69197;SDS011;56311;50.298;8.514;2023-08-31T06:06:01;6.0;;;3.0;;
69197;SDS011;56311;50.298;8.514;2023-08-31T06:08:00;7.3;;;3.0;;
69197;SDS011;56311;50.298;8.514;2023-08-31T06:10:00;7.7;;;2.9;;
69197;SDS011;56311;50.298;8.514;2023-08-31T06:12:00;9.4;;;3.4;;
69197;SDS011;56311;50.298;8.514;2023-08-31T06:14:00;8.4;;;3.2;;
69197;SDS011;56311;50.298;8.514;2023-08-31T06:16:00;7.4;;;2.9;;
69197;SDS011;56311;50.298;8.514;2023-08-31T06:18:00;8.1;;;3.0;;
69197;SDS011;56311;50.298;8.514;2023-08-31T06:20:00;9.4;;;3.0;;
69197;SDS011;56311;50.298;8.514;2023-08-31T06:22:00;6.7;;;2.8;;
69197;SDS011;56311;50.298;8.514;2023-08-31T06:24:00;5.9;;;2.9;;
69197;SDS011;56311;50.298;8.514;2023-08-31T06:26:00;6.4;;;2.5;;
69197;SDS011;56311;50.298;8.514;2023-08-31T06:28:00;6.3;;;2.5;;
69197;SDS011;56311;50.298;8.514;2023-08-31T06:30:00;5.8;;;2.5;;
69197;SDS011;56311;50.298;8.514;2023-08-31T06:32:00;7.9;;;2.6;;
69197;SDS011;56311;50.298;8.514;2023-08-31T06:34:00;5.8;;;2.4;;
69197;SDS011;56311;50.298;8.514;2023-08-31T06:36:00;7.9;;;2.7;;
69197;SDS011;56311;50.298;8.514;2023-08-31T06:38:00;7.0;;;2.4;;
69197;SDS011;56311;50.298;8.514;2023-08-31T06:40:00;35.7;;;26.9;;
69197;SDS011;56311;50.298;8.514;2023-08-31T06:42:01;29.9;;;19.6;;
69197;SDS011;56311;50.298;8.514;2023-08-31T06:44:01;5.8;;;2.6;;
69197;SDS011;56311;50.298;8.514;2023-08-31T06:46:00;7.5;;;2.7;;
69197;SDS011;56311;50.298;8.514;2023-08-31T06:48:00;7.0;;;2.6;;
69197;SDS011;56311;50.298;8.514;2023-08-31T06:50:00;7.5;;;2.9;;
69197;SDS011;56311;50.298;8.514;2023-08-31T06:52:00;8.2;;;2.7;;
69197;SDS011;56311;50.298;8.514;2023-08-31T06:54:00;8.3;;;2.8;;
69197;SDS011;56311;50.298;8.514;2023-08-31T06:56:00;7.9;;;2.7;;
69197;SDS011;56311;50.298;8.514;2023-08-31T06:58:00;9.4;;;3.1;;
69197;SDS011;56311;50.298;8.514;2023-08-31T07:00:00;6.7;;;2.8;;
69197;SDS011;56311;50.298;8.514;2023-08-31T07:02:00;7.6;;;2.6;;
69197;SDS011;56311;50.298;8.514;2023-08-31T07:04:00;7.1;;;2.6;;
69197;SDS011;56311;50.298;8.514;2023-08-31T07:06:00;6.6;;;2.4;;
69197;SDS011;56311;50.298;8.514;2023-08-31T07:08:00;5.7;;;2.5;;
69197;SDS011;56311;50.298;8.514;2023-08-31T07:10:00;5.1;;;2.4;;
69197;SDS011;56311;50.298;8.514;2023-08-31T07:12:00;7.1;;;2.3;;
69197;SDS011;56311;50.298;8.514;2023-08-31T07:14:00;9.1;;;2.7;;
69197;SDS011;56311;50.298;8.514;2023-08-31T07:16:00;9.5;;;2.5;;
69197;SDS011;56311;50.298;8.514;2023-08-31T07:18:00;7.1;;;2.1;;
69197;SDS011;56311;50.298;8.514;2023-08-31T07:20:00;5.9;;;2.0;;
69197;SDS011;56311;50.298;8.514;2023-08-31T07:22:00;7.0;;;2.0;;
69197;SDS011;56311;50.298;8.514;2023-08-31T07:24:00;6.4;;;1.9;;
69197;SDS011;56311;50.298;8.514;2023-08-31T07:26:00;8.4;;;1.9;;
69197;SDS011;56311;50.298;8.514;2023-08-31T07:28:00;5.5;;;1.8;;
69197;SDS011;56311;50.298;8.514;2023-08-31T07:30:00;6.8;;;2.0;;
69197;SDS011;56311;50.298;8.514;2023-08-31T07:32:00;6.7;;;1.9;;
69197;SDS011;56311;50.298;8.514;2023-08-31T07:34:00;6.3;;;1.8;;
69197;SDS011;56311;50.298;8.514;2023-08-31T07:36:00;5.0;;;1.9;;
69197;SDS011;56311;50.298;8.514;2023-08-31T07:38:00;4.8;;;1.7;;
69197;SDS011;56311;50.298;8.514;2023-08-31T07:40:00;5.2;;;1.6;;
69197;SDS011;56311;50.298;8.514;2023-08-31T07:42:00;4.8;;;1.6;;
69197;SDS011;56311;50.298;8.514;2023-08-31T07:44:00;5.5;;;1.6;;
69197;SDS011;56311;50.298;8.514;2023-08-31T07:46:00;7.7;;;1.7;;
69197;SDS011;56311;50.298;8.514;2023-08-31T07:48:00;4.9;;;1.5;;
69197;SDS011;56311;50.298;8.514;2023-08-31T07:50:00;10.0;;;2.0;;
69197;SDS011;56311;50.298;8.514;2023-08-31T07:52:00;6.2;;;1.6;;
69197;SDS011;56311;50.298;8.514;2023-08-31T07:54:00;5.5;;;1.6;;
69197;SDS011;56311;50.298;8.514;2023-08-31T07:56:00;6.9;;;1.7;;
69197;SDS011;56311;50.298;8.514;2023-08-31T07:58:00;5.4;;;1.6;;
69197;SDS011;56311;50.298;8.514;2023-08-31T08:00:00;5.1;;;1.4;;
69197;SDS011;56311;50.298;8.514;2023-08-31T08:02:00;7.0;;;1.6;;
69197;SDS011;56311;50.298;8.514;2023-08-31T08:04:00;5.7;;;1.8;;
69197;SDS011;56311;50.298;8.514;2023-08-31T08:06:00;6.4;;;1.8;;
69197;SDS011;56311;50.298;8.514;2023-08-31T08:08:00;6.1;;;1.4;;
69197;SDS011;56311;50.298;8.514;2023-08-31T08:10:00;5.9;;;1.5;;
69197;SDS011;56311;50.298;8.514;2023-08-31T08:12:00;5.8;;;1.8;;
69197;SDS011;56311;50.298;8.514;2023-08-31T08:14:00;6.9;;;2.1;;
69197;SDS011;56311;50.298;8.514;2023-08-31T08:16:00;5.3;;;1.6;;
69197;SDS011;56311;50.298;8.514;2023-08-31T08:18:00;6.1;;;1.4;;
69197;SDS011;56311;50.298;8.514;2023-08-31T08:20:00;6.1;;;1.5;;
69197;SDS011;56311;50.298;8.514;2023-08-31T08:22:00;6.8;;;1.8;;
69197;SDS011;56311;50.298;8.514;2023-08-31T08:24:00;5.7;;;1.8;;
69197;SDS011;56311;50.298;8.514;2023-08-31T08:26:00;6.5;;;1.5;;
69197;SDS011;56311;50.298;8.514;2023-08-31T08:28:00;7.5;;;1.8;;
69197;SDS011;56311;50.298;8.514;2023-08-31T08:30:00;5.9;;;1.8;;
69197;SDS011;56311;50.298;8.514;2023-08-31T08:32:00;7.4;;;1.7;;
69197;SDS011;56311;50.298;8.514;2023-08-31T08:34:00;6.1;;;1.6;;
69197;SDS011;56311;50.298;8.514;2023-08-31T08:36:00;6.2;;;1.7;;
69197;SDS011;56311;50.298;8.514;2023-08-31T08:38:00;7.2;;;1.7;;
69197;SDS011;56311;50.298;8.514;2023-08-31T08:40:00;6.5;;;1.6;;
69197;SDS011;56311;50.298;8.514;2023-08-31T08:42:00;6.7;;;1.7;;
69197;SDS011;56311;50.298;8.514;2023-08-31T08:44:01;6.3;;;1.7;;
69197;SDS011;56311;50.298;8.514;2023-08-31T08:46:00;6.0;;;1.5;;
69197;SDS011;56311;50.298;8.514;2023-08-31T08:48:00;5.5;;;1.6;;
69197;SDS011;56311;50.298;8.514;2023-08-31T08:50:00;5.6;;;1.5;;
69197;SDS011;56311;50.298;8.514;2023-08-31T08:52:00;6.7;;;1.5;;
69197;SDS011;56311;50.298;8.514;2023-08-31T08:54:00;6.7;;;1.6;;
69197;SDS011;56311;50.298;8.514;2023-08-31T08:56:00;7.5;;;1.8;;
69197;SDS011;56311;50.298;8.514;2023-08-31T08:58:00;5.6;;;1.6;;
69197;SDS011;56311;50.298;8.514;2023-08-31T09:00:00;7.3;;;1.5;;
69197;SDS011;56311;50.298;8.514;2023-08-31T09:02:00;5.9;;;1.7;;
69197;SDS011;56311;50.298;8.514;2023-08-31T09:04:00;7.0;;;1.8;;
69197;SDS011;56311;50.298;8.514;2023-08-31T09:06:00;6.6;;;1.5;;
69197;SDS011;56311;50.298;8.514;2023-08-31T09:08:00;6.6;;;1.6;;
69197;SDS011;56311;50.298;8.514;2023-08-31T09:10:00;5.0;;;1.5;;
69197;SDS011;56311;50.298;8.514;2023-08-31T09:12:06;7.1;;;1.7;;
69197;SDS011;56311;50.298;8.514;2023-08-31T09:14:00;6.3;;;1.6;;
69197;SDS011;56311;50.298;8.514;2023-08-31T09:16:00;6.4;;;1.8;;
69197;SDS011;56311;50.298;8.514;2023-08-31T09:18:00;7.7;;;1.9;;
69197;SDS011;56311;50.298;8.514;2023-08-31T09:20:00;5.7;;;1.5;;
69197;SDS011;56311;50.298;8.514;2023-08-31T09:22:00;6.8;;;1.5;;
69197;SDS011;56311;50.298;8.514;2023-08-31T09:24:00;7.9;;;2.1;;
69197;SDS011;56311;50.298;8.514;2023-08-31T09:26:00;5.1;;;1.7;;
69197;SDS011;56311;50.298;8.514;2023-08-31T09:28:01;6.2;;;1.8;;
69197;SDS011;56311;50.298;8.514;2023-08-31T09:30:00;4.7;;;1.5;;
69197;SDS011;56311;50.298;8.514;2023-08-31T09:32:00;5.7;;;1.8;;
69197;SDS011;56311;50.298;8.514;2023-08-31T09:34:00;4.8;;;1.5;;
69197;SDS011;56311;50.298;8.514;2023-08-31T09:36:00;5.2;;;1.5;;
69197;SDS011;56311;50.298;8.514;2023-08-31T09:38:00;6.3;;;1.5;;
69197;SDS011;56311;50.298;8.514;2023-08-31T09:40:02;7.3;;;1.6;;
69197;SDS011;56311;50.298;8.514;2023-08-31T09:42:00;6.0;;;1.7;;
69197;SDS011;56311;50.298;8.514;2023-08-31T09:46:00;5.4;;;1.6;;
69197;SDS011;56311;50.298;8.514;2023-08-31T09:48:01;5.7;;;1.6;;
69197;SDS011;56311;50.298;8.514;2023-08-31T09:50:00;7.4;;;1.7;;
69197;SDS011;56311;50.298;8.514;2023-08-31T09:52:00;6.1;;;1.5;;
69197;SDS011;56311;50.298;8.514;2023-08-31T09:54:00;7.1;;;1.5;;
69197;SDS011;56311;50.298;8.514;2023-08-31T09:56:00;6.4;;;1.7;;
69197;SDS011;56311;50.298;8.514;2023-08-31T09:58:00;4.2;;;1.3;;
69197;SDS011;56311;50.298;8.514;2023-08-31T10:00:00;6.1;;;1.6;;
69197;SDS011;56311;50.298;8.514;2023-08-31T10:02:01;6.6;;;1.6;;
69197;SDS011;56311;50.298;8.514;2023-08-31T10:04:00;5.6;;;1.6;;
69197;SDS011;56311;50.298;8.514;2023-08-31T10:06:00;6.3;;;1.7;;
69197;SDS011;56311;50.298;8.514;2023-08-31T10:08:00;5.6;;;1.4;;
69197;SDS011;56311;50.298;8.514;2023-08-31T10:10:00;6.3;;;1.8;;
69197;SDS011;56311;50.298;8.514;2023-08-31T10:12:00;5.2;;;1.5;;
69197;SDS011;56311;50.298;8.514;2023-08-31T10:14:00;4.8;;;1.4;;
69197;SDS011;56311;50.298;8.514;2023-08-31T10:16:00;6.2;;;1.8;;
69197;SDS011;56311;50.298;8.514;2023-08-31T10:18:00;5.5;;;1.5;;
69197;SDS011;56311;50.298;8.514;2023-08-31T10:20:00;7.2;;;1.7;;
69197;SDS011;56311;50.298;8.514;2023-08-31T10:22:00;7.1;;;1.6;;
69197;SDS011;56311;50.298;8.514;2023-08-31T10:24:00;5.2;;;1.7;;
69197;SDS011;56311;50.298;8.514;2023-08-31T10:26:01;6.7;;;1.5;;
69197;SDS011;56311;50.298;8.514;2023-08-31T10:28:10;4.8;;;1.4;;
69197;SDS011;56311;50.298;8.514;2023-08-31T10:32:00;6.7;;;1.8;;
69197;SDS011;56311;50.298;8.514;2023-08-31T10:34:00;4.3;;;1.5;;
69197;SDS011;56311;50.298;8.514;2023-08-31T10:36:00;8.4;;;1.6;;
69197;SDS011;56311;50.298;8.514;2023-08-31T10:40:07;5.2;;;1.7;;
69197;SDS011;56311;50.298;8.514;2023-08-31T10:42:00;5.3;;;1.8;;
69197;SDS011;56311;50.298;8.514;2023-08-31T10:44:00;7.3;;;1.7;;
69197;SDS011;56311;50.298;8.514;2023-08-31T10:46:00;6.6;;;1.8;;
69197;SDS011;56311;50.298;8.514;2023-08-31T10:48:00;5.4;;;1.5;;
69197;SDS011;56311;50.298;8.514;2023-08-31T10:50:09;6.8;;;1.7;;
69197;SDS011;56311;50.298;8.514;2023-08-31T10:54:08;4.5;;;1.4;;
69197;SDS011;56311;50.298;8.514;2023-08-31T10:56:00;5.7;;;1.6;;
69197;SDS011;56311;50.298;8.514;2023-08-31T10:58:00;5.5;;;1.5;;
69197;SDS011;56311;50.298;8.514;2023-08-31T11:00:00;7.7;;;1.5;;
69197;SDS011;56311;50.298;8.514;2023-08-31T11:02:00;6.2;;;1.3;;
69197;SDS011;56311;50.298;8.514;2023-08-31T11:04:00;6.5;;;1.4;;
69197;SDS011;56311;50.298;8.514;2023-08-31T11:06:00;5.7;;;1.5;;
69197;SDS011;56311;50.298;8.514;2023-08-31T11:08:00;5.1;;;1.3;;
69197;SDS011;56311;50.298;8.514;2023-08-31T11:10:08;6.6;;;1.6;;
69197;SDS011;56311;50.298;8.514;2023-08-31T11:12:00;6.2;;;1.6;;
69197;SDS011;56311;50.298;8.514;2023-08-31T11:14:00;4.7;;;1.4;;
69197;SDS011;56311;50.298;8.514;2023-08-31T11:16:00;5.2;;;1.4;;
69197;SDS011;56311;50.298;8.514;2023-08-31T11:18:00;7.7;;;1.7;;
69197;SDS011;56311;50.298;8.514;2023-08-31T11:20:00;7.3;;;1.6;;
69197;SDS011;56311;50.298;8.514;2023-08-31T11:22:00;6.3;;;1.6;;
69197;SDS011;56311;50.298;8.514;2023-08-31T11:24:00;6.6;;;1.7;;
69197;SDS011;56311;50.298;8.514;2023-08-31T11:26:00;6.0;;;1.6;;
69197;SDS011;56311;50.298;8.514;2023-08-31T11:28:01;5.6;;;1.4;;
69197;SDS011;56311;50.298;8.514;2023-08-31T11:30:00;5.7;;;1.6;;
69197;SDS011;56311;50.298;8.514;2023-08-31T11:32:00;6.2;;;1.5;;
69197;SDS011;56311;50.298;8.514;2023-08-31T11:34:00;7.4;;;1.5;;
69197;SDS011;56311;50.298;8.514;2023-08-31T11:36:00;7.4;;;1.6;;
69197;SDS011;56311;50.298;8.514;2023-08-31T11:38:00;4.9;;;1.3;;
69197;SDS011;56311;50.298;8.514;2023-08-31T11:40:00;6.0;;;1.3;;
69197;SDS011;56311;50.298;8.514;2023-08-31T11:42:00;3.9;;;1.3;;
69197;SDS011;56311;50.298;8.514;2023-08-31T11:44:00;6.0;;;1.3;;
69197;SDS011;56311;50.298;8.514;2023-08-31T11:46:00;5.7;;;1.4;;
69197;SDS011;56311;50.298;8.514;2023-08-31T11:48:00;6.3;;;1.4;;
69197;SDS011;56311;50.298;8.514;2023-08-31T11:50:00;6.4;;;1.4;;
69197;SDS011;56311;50.298;8.514;2023-08-31T11:52:02;6.3;;;1.5;;
69197;SDS011;56311;50.298;8.514;2023-08-31T11:54:00;4.7;;;1.3;;
69197;SDS011;56311;50.298;8.514;2023-08-31T11:56:01;5.0;;;1.2;;
69197;SDS011;56311;50.298;8.514;2023-08-31T11:58:00;5.1;;;1.2;;
69197;SDS011;56311;50.298;8.514;2023-08-31T12:00:00;6.0;;;1.3;;
69197;SDS011;56311;50.298;8.514;2023-08-31T12:02:00;5.3;;;1.5;;
69197;SDS011;56311;50.298;8.514;2023-08-31T12:04:00;5.7;;;1.3;;
69197;SDS011;56311;50.298;8.514;2023-08-31T12:06:00;5.5;;;1.4;;
69197;SDS011;56311;50.298;8.514;2023-08-31T12:08:00;4.9;;;1.4;;
69197;SDS011;56311;50.298;8.514;2023-08-31T12:10:02;4.3;;;1.2;;
69197;SDS011;56311;50.298;8.514;2023-08-31T12:12:01;4.6;;;1.2;;
69197;SDS011;56311;50.298;8.514;2023-08-31T12:14:00;5.1;;;1.2;;
69197;SDS011;56311;50.298;8.514;2023-08-31T12:16:00;4.8;;;1.2;;
69197;SDS011;56311;50.298;8.514;2023-08-31T12:18:06;5.0;;;1.3;;
69197;SDS011;56311;50.298;8.514;2023-08-31T12:20:02;4.9;;;1.3;;
69197;SDS011;56311;50.298;8.514;2023-08-31T12:22:00;4.9;;;1.3;;
69197;SDS011;56311;50.298;8.514;2023-08-31T12:24:01;4.7;;;1.2;;
69197;SDS011;56311;50.298;8.514;2023-08-31T12:26:00;5.0;;;1.2;;
69197;SDS011;56311;50.298;8.514;2023-08-31T12:28:00;4.8;;;1.3;;
69197;SDS011;56311;50.298;8.514;2023-08-31T12:30:00;5.0;;;1.3;;